Sevierville, TN (37876)

3:35 PM EST on December 28, 2014 (GMT -0500)
South Douglas Lake | Change Station
CLOSE
Current Station
Personal Weather Station
Location: Sevierville, TN
Elevation: 1050 ft
Nearby Weather Stations

Elev 1050 ft 35.92 °N, 83.49 °W | Updated 5 minutes ago

Overcast
Overcast
49.7 °F
Feels Like 50 °F
N
0.0
Wind Variable Wind from NE
Gusts 1.0 mph

Today
High -- | Low -- °F
--% Chance of Precip.
Yesterday
High -- | Low -- °F
Precip. -- in
7:43 AM 5:28 PM
Waxing Crescent, 51% visible
Pressure 30.05 in
Visibility 4.0 miles
Clouds Overcast 400 ft
Windchill 50 °F
Dew Point 50 °F
Humidity 100%
Rainfall 0.20 in
Snow Depth Not available.
UV 1 out of 12
Pollen .10 out of 12
Air Quality Not available.
Flu Activity Not available.
METAR KTYS 281953Z 00000KT 4SM BR OVC004 11/11 A3005 RMK AO2 RAE38 CIG 002V007 SLP174 P0000 T01060106

More Conditions Fewer Conditions

Pressure 30.05 in
Visibility 4.0 miles
Clouds Overcast 400 ft
Windchill 50 °F
Dew Point 50 °F
Humidity 100%
Rainfall 0.20 in
Snow Depth Not available.
UV 1 out of 12
Pollen .10 out of 12
Air Quality Not available.
Flu Activity Not available.
METAR KTYS 281953Z 00000KT 4SM BR OVC004 11/11 A3005 RMK AO2 RAE38 CIG 002V007 SLP174 P0000 T01060106

More Conditions Fewer Conditions

10-Day Weather Forecast

Almanac

Astronomy

Dec. 28, 2014 Rise Set
Actual Time
Civil Twilight
Nautical Twilight
Astronomical Twilight
Moon
Length of Visible Light
Length of Day
Tomorrow will be .
, % of the Moon is Illuminated

Today's Extremes

State Highs State Lows

Community

WunderPhotos

Upload Photos

1,781,414 photos uploaded!

WunderBlogs® & News

Nearby

Air Quality

  Air Quality AQ Index Pollutant
Not available.

Snow Depth

Station Depth Elevation

Earthquake Activity

City Distance Mag. Time & Date
Minimum magnitude displayed is 2.5.

Coastal Water Temperatures

Place Temperature

Nearby Weather Stations